sensor_id;sensor_type;location;lat;lon;timestamp;P1;durP1;ratioP1;P2;durP2;ratioP2
68225;SDS011;55045;49.410;11.030;2023-05-10T00:01:42;8.00;;;6.13;;
68225;SDS011;55045;49.410;11.030;2023-05-10T00:04:45;10.68;;;6.78;;
68225;SDS011;55045;49.410;11.030;2023-05-10T00:07:49;8.80;;;6.88;;
68225;SDS011;55045;49.410;11.030;2023-05-10T00:10:52;9.18;;;6.82;;
68225;SDS011;55045;49.410;11.030;2023-05-10T00:13:56;8.85;;;7.60;;
68225;SDS011;55045;49.410;11.030;2023-05-10T00:16:59;8.77;;;7.40;;
68225;SDS011;55045;49.410;11.030;2023-05-10T00:20:02;11.80;;;7.95;;
68225;SDS011;55045;49.410;11.030;2023-05-10T00:23:08;10.65;;;8.48;;
68225;SDS011;55045;49.410;11.030;2023-05-10T00:26:11;11.93;;;8.77;;
68225;SDS011;55045;49.410;11.030;2023-05-10T00:29:19;11.02;;;8.25;;
68225;SDS011;55045;49.410;11.030;2023-05-10T00:32:22;12.30;;;8.80;;
68225;SDS011;55045;49.410;11.030;2023-05-10T00:35:25;11.63;;;8.57;;
68225;SDS011;55045;49.410;11.030;2023-05-10T00:38:30;13.30;;;8.98;;
68225;SDS011;55045;49.410;11.030;2023-05-10T00:41:34;11.77;;;8.55;;
68225;SDS011;55045;49.410;11.030;2023-05-10T00:44:39;14.23;;;10.93;;
68225;SDS011;55045;49.410;11.030;2023-05-10T00:47:42;14.98;;;9.98;;
68225;SDS011;55045;49.410;11.030;2023-05-10T00:50:45;12.85;;;8.98;;
68225;SDS011;55045;49.410;11.030;2023-05-10T00:53:51;15.00;;;10.38;;
68225;SDS011;55045;49.410;11.030;2023-05-10T00:56:54;14.02;;;10.40;;
68225;SDS011;55045;49.410;11.030;2023-05-10T00:59:58;13.15;;;9.35;;
68225;SDS011;55045;49.410;11.030;2023-05-10T01:03:03;14.35;;;10.43;;
68225;SDS011;55045;49.410;11.030;2023-05-10T01:06:06;15.52;;;10.63;;
68225;SDS011;55045;49.410;11.030;2023-05-10T01:09:12;16.40;;;11.68;;
68225;SDS011;55045;49.410;11.030;2023-05-10T01:12:16;15.18;;;10.90;;
68225;SDS011;55045;49.410;11.030;2023-05-10T01:15:19;19.08;;;11.90;;
68225;SDS011;55045;49.410;11.030;2023-05-10T01:18:23;14.80;;;11.02;;
68225;SDS011;55045;49.410;11.030;2023-05-10T01:21:30;17.40;;;11.48;;
68225;SDS011;55045;49.410;11.030;2023-05-10T01:28:20;16.15;;;11.77;;
68225;SDS011;55045;49.410;11.030;2023-05-10T01:35:26;19.30;;;11.52;;
68225;SDS011;55045;49.410;11.030;2023-05-10T01:38:38;15.38;;;10.85;;
68225;SDS011;55045;49.410;11.030;2023-05-10T01:41:47;16.95;;;11.15;;
68225;SDS011;55045;49.410;11.030;2023-05-10T01:44:55;17.40;;;11.13;;
68225;SDS011;55045;49.410;11.030;2023-05-10T01:48:07;16.35;;;10.95;;
68225;SDS011;55045;49.410;11.030;2023-05-10T01:51:12;16.00;;;11.55;;
68225;SDS011;55045;49.410;11.030;2023-05-10T01:54:20;16.30;;;11.27;;
68225;SDS011;55045;49.410;11.030;2023-05-10T01:57:25;15.35;;;10.95;;
68225;SDS011;55045;49.410;11.030;2023-05-10T02:00:35;16.00;;;11.13;;
68225;SDS011;55045;49.410;11.030;2023-05-10T02:03:41;16.67;;;10.98;;
68225;SDS011;55045;49.410;11.030;2023-05-10T02:06:46;12.80;;;9.98;;
68225;SDS011;55045;49.410;11.030;2023-05-10T02:09:50;14.98;;;10.43;;
68225;SDS011;55045;49.410;11.030;2023-05-10T02:12:55;11.18;;;8.80;;
68225;SDS011;55045;49.410;11.030;2023-05-10T02:16:01;16.48;;;10.98;;
68225;SDS011;55045;49.410;11.030;2023-05-10T02:19:09;14.52;;;10.40;;
68225;SDS011;55045;49.410;11.030;2023-05-10T02:22:14;10.25;;;8.30;;
68225;SDS011;55045;49.410;11.030;2023-05-10T02:25:19;16.40;;;10.40;;
68225;SDS011;55045;49.410;11.030;2023-05-10T02:28:24;16.63;;;11.18;;
68225;SDS011;55045;49.410;11.030;2023-05-10T02:31:29;17.35;;;9.50;;
68225;SDS011;55045;49.410;11.030;2023-05-10T02:34:36;11.65;;;8.77;;
68225;SDS011;55045;49.410;11.030;2023-05-10T02:37:41;15.02;;;9.93;;
68225;SDS011;55045;49.410;11.030;2023-05-10T02:40:46;11.07;;;8.35;;
68225;SDS011;55045;49.410;11.030;2023-05-10T02:43:51;11.50;;;7.40;;
68225;SDS011;55045;49.410;11.030;2023-05-10T02:46:58;11.23;;;7.85;;
68225;SDS011;55045;49.410;11.030;2023-05-10T02:50:05;11.77;;;7.47;;
68225;SDS011;55045;49.410;11.030;2023-05-10T02:53:10;8.93;;;6.43;;
68225;SDS011;55045;49.410;11.030;2023-05-10T02:56:20;7.45;;;5.68;;
68225;SDS011;55045;49.410;11.030;2023-05-10T02:59:27;7.32;;;5.72;;
68225;SDS011;55045;49.410;11.030;2023-05-10T03:02:31;7.10;;;5.25;;
68225;SDS011;55045;49.410;11.030;2023-05-10T03:05:36;7.13;;;4.85;;
68225;SDS011;55045;49.410;11.030;2023-05-10T03:08:39;7.35;;;4.97;;
68225;SDS011;55045;49.410;11.030;2023-05-10T03:11:47;5.53;;;4.60;;
68225;SDS011;55045;49.410;11.030;2023-05-10T03:15:00;5.18;;;4.68;;
68225;SDS011;55045;49.410;11.030;2023-05-10T03:18:12;3.42;;;3.10;;
68225;SDS011;55045;49.410;11.030;2023-05-10T03:21:21;4.13;;;3.28;;
68225;SDS011;55045;49.410;11.030;2023-05-10T03:24:28;2.83;;;2.53;;
68225;SDS011;55045;49.410;11.030;2023-05-10T03:27:35;2.75;;;2.50;;
68225;SDS011;55045;49.410;11.030;2023-05-10T03:34:42;3.42;;;2.35;;
68225;SDS011;55045;49.410;11.030;2023-05-10T03:37:45;1.80;;;1.70;;
68225;SDS011;55045;49.410;11.030;2023-05-10T03:40:49;3.42;;;2.05;;
68225;SDS011;55045;49.410;11.030;2023-05-10T03:43:52;4.22;;;2.50;;
68225;SDS011;55045;49.410;11.030;2023-05-10T03:46:55;3.15;;;2.40;;
68225;SDS011;55045;49.410;11.030;2023-05-10T03:50:01;2.42;;;1.90;;
68225;SDS011;55045;49.410;11.030;2023-05-10T03:53:06;2.50;;;2.10;;
68225;SDS011;55045;49.410;11.030;2023-05-10T03:56:09;2.35;;;1.90;;
68225;SDS011;55045;49.410;11.030;2023-05-10T03:59:12;2.88;;;2.20;;
68225;SDS011;55045;49.410;11.030;2023-05-10T04:02:15;2.03;;;1.83;;
68225;SDS011;55045;49.410;11.030;2023-05-10T04:05:20;2.35;;;1.95;;
68225;SDS011;55045;49.410;11.030;2023-05-10T04:08:26;1.85;;;1.73;;
68225;SDS011;55045;49.410;11.030;2023-05-10T04:11:31;2.22;;;1.80;;
68225;SDS011;55045;49.410;11.030;2023-05-10T04:14:34;1.55;;;1.40;;
68225;SDS011;55045;49.410;11.030;2023-05-10T04:17:38;1.40;;;1.30;;
68225;SDS011;55045;49.410;11.030;2023-05-10T04:20:43;1.48;;;1.20;;
68225;SDS011;55045;49.410;11.030;2023-05-10T04:23:46;3.00;;;1.30;;
68225;SDS011;55045;49.410;11.030;2023-05-10T04:26:49;1.70;;;1.10;;
68225;SDS011;55045;49.410;11.030;2023-05-10T04:29:52;1.23;;;1.17;;
68225;SDS011;55045;49.410;11.030;2023-05-10T04:32:56;1.13;;;1.02;;
68225;SDS011;55045;49.410;11.030;2023-05-10T04:36:01;1.48;;;1.38;;
68225;SDS011;55045;49.410;11.030;2023-05-10T04:39:05;1.30;;;1.20;;
68225;SDS011;55045;49.410;11.030;2023-05-10T04:42:08;2.67;;;1.15;;
68225;SDS011;55045;49.410;11.030;2023-05-10T04:45:13;2.60;;;1.13;;
68225;SDS011;55045;49.410;11.030;2023-05-10T04:48:17;1.95;;;1.10;;
68225;SDS011;55045;49.410;11.030;2023-05-10T04:51:21;1.05;;;1.05;;
68225;SDS011;55045;49.410;11.030;2023-05-10T04:54:25;2.25;;;1.25;;
68225;SDS011;55045;49.410;11.030;2023-05-10T04:57:28;1.27;;;1.17;;
68225;SDS011;55045;49.410;11.030;2023-05-10T05:00:31;1.25;;;1.15;;
68225;SDS011;55045;49.410;11.030;2023-05-10T05:03:36;1.23;;;1.10;;
68225;SDS011;55045;49.410;11.030;2023-05-10T05:06:41;1.40;;;1.30;;
68225;SDS011;55045;49.410;11.030;2023-05-10T05:09:44;1.42;;;1.27;;
68225;SDS011;55045;49.410;11.030;2023-05-10T05:12:47;2.35;;;1.20;;
68225;SDS011;55045;49.410;11.030;2023-05-10T05:15:50;1.38;;;1.27;;
68225;SDS011;55045;49.410;11.030;2023-05-10T05:18:54;1.33;;;1.23;;
68225;SDS011;55045;49.410;11.030;2023-05-10T05:21:58;1.30;;;1.10;;
68225;SDS011;55045;49.410;11.030;2023-05-10T05:25:02;2.65;;;1.20;;
68225;SDS011;55045;49.410;11.030;2023-05-10T05:28:06;2.17;;;1.27;;
68225;SDS011;55045;49.410;11.030;2023-05-10T05:31:09;1.23;;;1.02;;
68225;SDS011;55045;49.410;11.030;2023-05-10T05:34:12;1.20;;;1.10;;
68225;SDS011;55045;49.410;11.030;2023-05-10T05:37:17;1.38;;;1.10;;
68225;SDS011;55045;49.410;11.030;2023-05-10T05:40:22;1.40;;;1.30;;
68225;SDS011;55045;49.410;11.030;2023-05-10T05:43:26;1.60;;;1.50;;
68225;SDS011;55045;49.410;11.030;2023-05-10T05:46:29;1.58;;;1.20;;
68225;SDS011;55045;49.410;11.030;2023-05-10T05:49:32;1.25;;;1.25;;
68225;SDS011;55045;49.410;11.030;2023-05-10T05:52:37;1.88;;;1.30;;
68225;SDS011;55045;49.410;11.030;2023-05-10T05:55:40;1.85;;;1.60;;
68225;SDS011;55045;49.410;11.030;2023-05-10T05:58:43;1.50;;;1.20;;
68225;SDS011;55045;49.410;11.030;2023-05-10T06:01:47;1.60;;;1.50;;
68225;SDS011;55045;49.410;11.030;2023-05-10T06:04:50;2.17;;;1.40;;
68225;SDS011;55045;49.410;11.030;2023-05-10T06:07:55;1.50;;;1.40;;
68225;SDS011;55045;49.410;11.030;2023-05-10T06:10:58;2.72;;;1.75;;
68225;SDS011;55045;49.410;11.030;2023-05-10T06:14:08;1.60;;;1.50;;
68225;SDS011;55045;49.410;11.030;2023-05-10T06:17:11;1.80;;;1.70;;
68225;SDS011;55045;49.410;11.030;2023-05-10T06:20:15;3.33;;;1.73;;
68225;SDS011;55045;49.410;11.030;2023-05-10T06:23:20;1.63;;;1.52;;
68225;SDS011;55045;49.410;11.030;2023-05-10T06:26:24;1.88;;;1.77;;
68225;SDS011;55045;49.410;11.030;2023-05-10T06:29:27;3.70;;;1.90;;
68225;SDS011;55045;49.410;11.030;2023-05-10T06:32:30;2.03;;;1.83;;
68225;SDS011;55045;49.410;11.030;2023-05-10T06:35:33;1.80;;;1.70;;
68225;SDS011;55045;49.410;11.030;2023-05-10T06:38:38;2.40;;;1.85;;
68225;SDS011;55045;49.410;11.030;2023-05-10T06:41:41;1.90;;;1.80;;
68225;SDS011;55045;49.410;11.030;2023-05-10T06:44:45;2.38;;;1.63;;
68225;SDS011;55045;49.410;11.030;2023-05-10T06:47:48;3.03;;;2.33;;
68225;SDS011;55045;49.410;11.030;2023-05-10T06:50:51;2.88;;;2.10;;
68225;SDS011;55045;49.410;11.030;2023-05-10T06:53:56;2.10;;;1.80;;
68225;SDS011;55045;49.410;11.030;2023-05-10T06:56:59;2.38;;;1.80;;
68225;SDS011;55045;49.410;11.030;2023-05-10T07:00:06;2.00;;;1.80;;
68225;SDS011;55045;49.410;11.030;2023-05-10T07:03:11;1.85;;;1.55;;
68225;SDS011;55045;49.410;11.030;2023-05-10T07:06:14;2.03;;;1.83;;
68225;SDS011;55045;49.410;11.030;2023-05-10T07:09:34;1.73;;;1.63;;
68225;SDS011;55045;49.410;11.030;2023-05-10T07:12:38;6.15;;;1.80;;
68225;SDS011;55045;49.410;11.030;2023-05-10T07:15:41;1.70;;;1.60;;
68225;SDS011;55045;49.410;11.030;2023-05-10T07:18:44;1.98;;;1.60;;
68225;SDS011;55045;49.410;11.030;2023-05-10T07:21:47;1.60;;;1.40;;
68225;SDS011;55045;49.410;11.030;2023-05-10T07:24:54;1.60;;;1.50;;
68225;SDS011;55045;49.410;11.030;2023-05-10T07:27:57;2.45;;;1.75;;
68225;SDS011;55045;49.410;11.030;2023-05-10T07:31:00;3.90;;;2.00;;
68225;SDS011;55045;49.410;11.030;2023-05-10T07:34:03;2.85;;;1.85;;
68225;SDS011;55045;49.410;11.030;2023-05-10T07:37:07;2.90;;;1.80;;
68225;SDS011;55045;49.410;11.030;2023-05-10T07:40:11;2.50;;;1.80;;
68225;SDS011;55045;49.410;11.030;2023-05-10T07:43:15;2.03;;;1.92;;
68225;SDS011;55045;49.410;11.030;2023-05-10T07:46:18;2.83;;;1.80;;
68225;SDS011;55045;49.410;11.030;2023-05-10T07:49:22;2.72;;;2.15;;
68225;SDS011;55045;49.410;11.030;2023-05-10T07:52:26;1.92;;;1.83;;
68225;SDS011;55045;49.410;11.030;2023-05-10T07:55:33;3.70;;;2.20;;
68225;SDS011;55045;49.410;11.030;2023-05-10T07:58:36;3.07;;;1.90;;
68225;SDS011;55045;49.410;11.030;2023-05-10T08:01:39;3.72;;;2.10;;
68225;SDS011;55045;49.410;11.030;2023-05-10T08:04:42;2.13;;;1.92;;
68225;SDS011;55045;49.410;11.030;2023-05-10T08:07:46;2.20;;;2.00;;
68225;SDS011;55045;49.410;11.030;2023-05-10T08:10:51;3.88;;;2.20;;
68225;SDS011;55045;49.410;11.030;2023-05-10T08:13:54;3.60;;;1.85;;
68225;SDS011;55045;49.410;11.030;2023-05-10T08:16:57;2.63;;;1.90;;
68225;SDS011;55045;49.410;11.030;2023-05-10T08:20:00;2.05;;;1.85;;
68225;SDS011;55045;49.410;11.030;2023-05-10T08:23:04;2.28;;;2.08;;
68225;SDS011;55045;49.410;11.030;2023-05-10T08:26:08;1.65;;;1.55;;
68225;SDS011;55045;49.410;11.030;2023-05-10T08:29:14;3.17;;;2.00;;
68225;SDS011;55045;49.410;11.030;2023-05-10T08:32:17;5.60;;;2.28;;
68225;SDS011;55045;49.410;11.030;2023-05-10T08:35:21;2.10;;;2.00;;
68225;SDS011;55045;49.410;11.030;2023-05-10T08:38:24;2.33;;;2.10;;
68225;SDS011;55045;49.410;11.030;2023-05-10T08:41:29;2.78;;;2.20;;
68225;SDS011;55045;49.410;11.030;2023-05-10T08:44:36;2.30;;;2.10;;
68225;SDS011;55045;49.410;11.030;2023-05-10T08:47:39;2.50;;;2.30;;
68225;SDS011;55045;49.410;11.030;2023-05-10T08:50:44;2.15;;;1.95;;
68225;SDS011;55045;49.410;11.030;2023-05-10T08:53:47;2.40;;;2.20;;
68225;SDS011;55045;49.410;11.030;2023-05-10T08:56:52;2.30;;;2.08;;
68225;SDS011;55045;49.410;11.030;2023-05-10T08:59:55;4.57;;;2.40;;
68225;SDS011;55045;49.410;11.030;2023-05-10T09:02:59;3.58;;;2.70;;
68225;SDS011;55045;49.410;11.030;2023-05-10T09:06:03;9.15;;;2.95;;
68225;SDS011;55045;49.410;11.030;2023-05-10T09:09:06;5.80;;;3.60;;
68225;SDS011;55045;49.410;11.030;2023-05-10T09:12:11;6.55;;;3.95;;
68225;SDS011;55045;49.410;11.030;2023-05-10T09:15:17;5.45;;;3.97;;
68225;SDS011;55045;49.410;11.030;2023-05-10T09:18:21;5.57;;;4.25;;
68225;SDS011;55045;49.410;11.030;2023-05-10T09:21:27;4.13;;;3.17;;
68225;SDS011;55045;49.410;11.030;2023-05-10T09:24:31;4.95;;;3.72;;
68225;SDS011;55045;49.410;11.030;2023-05-10T09:27:36;3.85;;;3.42;;
68225;SDS011;55045;49.410;11.030;2023-05-10T09:34:39;4.90;;;3.47;;
68225;SDS011;55045;49.410;11.030;2023-05-10T09:37:43;3.20;;;2.90;;
68225;SDS011;55045;49.410;11.030;2023-05-10T09:40:50;5.18;;;2.45;;
68225;SDS011;55045;49.410;11.030;2023-05-10T09:43:57;3.50;;;2.65;;
68225;SDS011;55045;49.410;11.030;2023-05-10T09:47:00;3.53;;;2.22;;
68225;SDS011;55045;49.410;11.030;2023-05-10T09:50:06;3.03;;;2.47;;
68225;SDS011;55045;49.410;11.030;2023-05-10T09:53:10;5.40;;;2.70;;
68225;SDS011;55045;49.410;11.030;2023-05-10T09:56:32;2.50;;;1.98;;
68225;SDS011;55045;49.410;11.030;2023-05-10T09:59:36;2.15;;;1.92;;
68225;SDS011;55045;49.410;11.030;2023-05-10T10:02:45;2.85;;;2.10;;
68225;SDS011;55045;49.410;11.030;2023-05-10T10:05:52;3.38;;;2.08;;
68225;SDS011;55045;49.410;11.030;2023-05-10T10:08:57;4.35;;;2.10;;
68225;SDS011;55045;49.410;11.030;2023-05-10T10:12:01;3.90;;;1.90;;
68225;SDS011;55045;49.410;11.030;2023-05-10T10:15:06;3.40;;;2.03;;
68225;SDS011;55045;49.410;11.030;2023-05-10T10:18:12;3.63;;;1.98;;
68225;SDS011;55045;49.410;11.030;2023-05-10T10:21:18;2.83;;;1.85;;
68225;SDS011;55045;49.410;11.030;2023-05-10T10:24:22;2.60;;;1.67;;
68225;SDS011;55045;49.410;11.030;2023-05-10T10:27:26;2.75;;;1.65;;
68225;SDS011;55045;49.410;11.030;2023-05-10T10:30:39;4.63;;;1.80;;
68225;SDS011;55045;49.410;11.030;2023-05-10T10:33:51;1.67;;;1.58;;
68225;SDS011;55045;49.410;11.030;2023-05-10T10:37:04;2.67;;;1.60;;
68225;SDS011;55045;49.410;11.030;2023-05-10T10:40:22;2.63;;;1.75;;
68225;SDS011;55045;49.410;11.030;2023-05-10T10:43:26;5.38;;;1.92;;
68225;SDS011;55045;49.410;11.030;2023-05-10T10:46:30;2.08;;;1.52;;
68225;SDS011;55045;49.410;11.030;2023-05-10T10:49:38;1.83;;;1.38;;
68225;SDS011;55045;49.410;11.030;2023-05-10T10:52:46;1.42;;;1.33;;
68225;SDS011;55045;49.410;11.030;2023-05-10T10:55:51;1.58;;;1.15;;
68225;SDS011;55045;49.410;11.030;2023-05-10T10:59:10;1.35;;;1.25;;
68225;SDS011;55045;49.410;11.030;2023-05-10T11:05:46;2.38;;;1.50;;
68225;SDS011;55045;49.410;11.030;2023-05-10T11:08:51;3.88;;;1.42;;
68225;SDS011;55045;49.410;11.030;2023-05-10T11:11:55;5.68;;;1.60;;
68225;SDS011;55045;49.410;11.030;2023-05-10T11:14:59;1.77;;;1.65;;
68225;SDS011;55045;49.410;11.030;2023-05-10T11:18:16;2.00;;;1.80;;
68225;SDS011;55045;49.410;11.030;2023-05-10T11:21:21;2.38;;;1.88;;
68225;SDS011;55045;49.410;11.030;2023-05-10T11:24:26;4.35;;;1.90;;
68225;SDS011;55045;49.410;11.030;2023-05-10T11:27:31;2.13;;;1.92;;
68225;SDS011;55045;49.410;11.030;2023-05-10T11:30:34;2.53;;;1.90;;
68225;SDS011;55045;49.410;11.030;2023-05-10T11:33:42;5.57;;;2.10;;
68225;SDS011;55045;49.410;11.030;2023-05-10T11:36:45;1.80;;;1.70;;
68225;SDS011;55045;49.410;11.030;2023-05-10T11:39:56;3.33;;;2.58;;
68225;SDS011;55045;49.410;11.030;2023-05-10T11:43:00;2.50;;;2.30;;
68225;SDS011;55045;49.410;11.030;2023-05-10T11:46:04;3.13;;;2.55;;
68225;SDS011;55045;49.410;11.030;2023-05-10T11:49:08;2.60;;;2.40;;
68225;SDS011;55045;49.410;11.030;2023-05-10T11:52:11;2.78;;;2.58;;
68225;SDS011;55045;49.410;11.030;2023-05-10T11:55:16;3.80;;;2.53;;
68225;SDS011;55045;49.410;11.030;2023-05-10T11:58:19;8.40;;;3.25;;
68225;SDS011;55045;49.410;11.030;2023-05-10T12:01:23;3.85;;;2.15;;
68225;SDS011;55045;49.410;11.030;2023-05-10T12:04:27;3.58;;;2.00;;
68225;SDS011;55045;49.410;11.030;2023-05-10T12:07:31;3.72;;;1.90;;
68225;SDS011;55045;49.410;11.030;2023-05-10T12:10:36;3.10;;;1.90;;
68225;SDS011;55045;49.410;11.030;2023-05-10T12:13:40;3.75;;;1.60;;
68225;SDS011;55045;49.410;11.030;2023-05-10T12:16:44;2.30;;;1.30;;
68225;SDS011;55045;49.410;11.030;2023-05-10T12:19:47;2.25;;;1.20;;
68225;SDS011;55045;49.410;11.030;2023-05-10T12:22:51;0.90;;;0.90;;
68225;SDS011;55045;49.410;11.030;2023-05-10T12:26:02;1.35;;;1.23;;
68225;SDS011;55045;49.410;11.030;2023-05-10T12:29:11;2.92;;;1.10;;
68225;SDS011;55045;49.410;11.030;2023-05-10T12:32:17;1.33;;;1.23;;
68225;SDS011;55045;49.410;11.030;2023-05-10T12:35:20;3.90;;;1.40;;
68225;SDS011;55045;49.410;11.030;2023-05-10T12:38:26;1.50;;;1.40;;
68225;SDS011;55045;49.410;11.030;2023-05-10T12:41:32;1.17;;;1.15;;
68225;SDS011;55045;49.410;11.030;2023-05-10T12:44:36;2.10;;;1.50;;
68225;SDS011;55045;49.410;11.030;2023-05-10T12:47:39;1.33;;;1.23;;
68225;SDS011;55045;49.410;11.030;2023-05-10T12:50:44;2.53;;;1.33;;
68225;SDS011;55045;49.410;11.030;2023-05-10T12:53:48;1.83;;;1.42;;
68225;SDS011;55045;49.410;11.030;2023-05-10T12:56:52;1.35;;;1.25;;
68225;SDS011;55045;49.410;11.030;2023-05-10T12:59:56;1.75;;;1.50;;
68225;SDS011;55045;49.410;11.030;2023-05-10T13:02:59;2.25;;;1.90;;
68225;SDS011;55045;49.410;11.030;2023-05-10T13:06:02;2.58;;;2.10;;
68225;SDS011;55045;49.410;11.030;2023-05-10T13:09:07;3.83;;;2.03;;
68225;SDS011;55045;49.410;11.030;2023-05-10T13:12:11;1.48;;;1.38;;
68225;SDS011;55045;49.410;11.030;2023-05-10T13:15:15;1.98;;;1.77;;
68225;SDS011;55045;49.410;11.030;2023-05-10T13:18:18;2.95;;;1.80;;
68225;SDS011;55045;49.410;11.030;2023-05-10T13:21:21;3.45;;;1.67;;
68225;SDS011;55045;49.410;11.030;2023-05-10T13:24:26;1.73;;;1.63;;
68225;SDS011;55045;49.410;11.030;2023-05-10T13:27:30;1.70;;;1.60;;
68225;SDS011;55045;49.410;11.030;2023-05-10T13:30:34;2.10;;;1.83;;
68225;SDS011;55045;49.410;11.030;2023-05-10T13:33:37;2.70;;;1.58;;
68225;SDS011;55045;49.410;11.030;2023-05-10T13:36:40;4.78;;;2.10;;
68225;SDS011;55045;49.410;11.030;2023-05-10T13:39:44;2.30;;;1.70;;
68225;SDS011;55045;49.410;11.030;2023-05-10T13:42:48;2.97;;;1.52;;
68225;SDS011;55045;49.410;11.030;2023-05-10T13:45:51;1.90;;;1.80;;
68225;SDS011;55045;49.410;11.030;2023-05-10T13:48:55;1.65;;;1.55;;
68225;SDS011;55045;49.410;11.030;2023-05-10T13:51:58;3.22;;;1.63;;
68225;SDS011;55045;49.410;11.030;2023-05-10T13:55:05;1.40;;;1.30;;
68225;SDS011;55045;49.410;11.030;2023-05-10T13:58:10;2.10;;;1.35;;
68225;SDS011;55045;49.410;11.030;2023-05-10T14:01:13;1.20;;;1.13;;
68225;SDS011;55045;49.410;11.030;2023-05-10T14:04:16;1.23;;;1.23;;
68225;SDS011;55045;49.410;11.030;2023-05-10T14:07:20;1.50;;;1.40;;
68225;SDS011;55045;49.410;11.030;2023-05-10T14:10:23;1.30;;;1.20;;
68225;SDS011;55045;49.410;11.030;2023-05-10T14:13:28;1.55;;;1.45;;
68225;SDS011;55045;49.410;11.030;2023-05-10T14:16:31;1.83;;;1.23;;
68225;SDS011;55045;49.410;11.030;2023-05-10T14:19:36;2.25;;;1.70;;
68225;SDS011;55045;49.410;11.030;2023-05-10T14:22:41;1.60;;;1.40;;
68225;SDS011;55045;49.410;11.030;2023-05-10T14:25:44;2.25;;;1.52;;
68225;SDS011;55045;49.410;11.030;2023-05-10T14:28:48;3.40;;;1.40;;
68225;SDS011;55045;49.410;11.030;2023-05-10T14:31:52;2.15;;;1.50;;
68225;SDS011;55045;49.410;11.030;2023-05-10T14:34:55;1.77;;;1.40;;
68225;SDS011;55045;49.410;11.030;2023-05-10T14:37:58;2.10;;;1.45;;
68225;SDS011;55045;49.410;11.030;2023-05-10T14:41:01;1.75;;;1.50;;
68225;SDS011;55045;49.410;11.030;2023-05-10T14:44:08;1.60;;;1.50;;
68225;SDS011;55045;49.410;11.030;2023-05-10T14:47:11;1.40;;;1.30;;
68225;SDS011;55045;49.410;11.030;2023-05-10T14:50:15;1.30;;;1.30;;
68225;SDS011;55045;49.410;11.030;2023-05-10T14:53:37;1.90;;;1.77;;
68225;SDS011;55045;49.410;11.030;2023-05-10T14:56:40;1.80;;;1.70;;
68225;SDS011;55045;49.410;11.030;2023-05-10T14:59:45;1.65;;;1.55;;
68225;SDS011;55045;49.410;11.030;2023-05-10T15:02:49;2.25;;;1.80;;
68225;SDS011;55045;49.410;11.030;2023-05-10T15:05:53;2.92;;;1.42;;
68225;SDS011;55045;49.410;11.030;2023-05-10T15:08:57;1.95;;;1.30;;
68225;SDS011;55045;49.410;11.030;2023-05-10T15:12:00;1.60;;;1.50;;
68225;SDS011;55045;49.410;11.030;2023-05-10T15:15:06;5.60;;;1.55;;
68225;SDS011;55045;49.410;11.030;2023-05-10T15:18:10;1.38;;;1.15;;
68225;SDS011;55045;49.410;11.030;2023-05-10T15:21:13;2.60;;;1.20;;
68225;SDS011;55045;49.410;11.030;2023-05-10T15:24:16;0.90;;;0.90;;
68225;SDS011;55045;49.410;11.030;2023-05-10T15:27:19;1.42;;;1.02;;
68225;SDS011;55045;49.410;11.030;2023-05-10T15:30:24;1.85;;;1.17;;
68225;SDS011;55045;49.410;11.030;2023-05-10T15:34:39;1.00;;;1.00;;
68225;SDS011;55045;49.410;11.030;2023-05-10T15:37:42;2.05;;;1.30;;
68225;SDS011;55045;49.410;11.030;2023-05-10T15:40:45;1.00;;;1.00;;
68225;SDS011;55045;49.410;11.030;2023-05-10T15:43:48;6.97;;;2.17;;
68225;SDS011;55045;49.410;11.030;2023-05-10T15:46:52;2.78;;;1.45;;
68225;SDS011;55045;49.410;11.030;2023-05-10T15:49:56;1.15;;;1.10;;
68225;SDS011;55045;49.410;11.030;2023-05-10T15:52:59;1.23;;;1.10;;
68225;SDS011;55045;49.410;11.030;2023-05-10T15:56:03;2.17;;;1.20;;
68225;SDS011;55045;49.410;11.030;2023-05-10T15:59:08;1.30;;;1.20;;
68225;SDS011;55045;49.410;11.030;2023-05-10T16:02:12;1.60;;;1.10;;
68225;SDS011;55045;49.410;11.030;2023-05-10T16:05:18;2.97;;;1.40;;
68225;SDS011;55045;49.410;11.030;2023-05-10T16:08:21;2.03;;;1.48;;
68225;SDS011;55045;49.410;11.030;2023-05-10T16:11:24;2.35;;;1.50;;
68225;SDS011;55045;49.410;11.030;2023-05-10T16:14:27;1.70;;;1.60;;
68225;SDS011;55045;49.410;11.030;2023-05-10T16:17:31;1.90;;;1.50;;
68225;SDS011;55045;49.410;11.030;2023-05-10T16:20:35;4.35;;;1.95;;
68225;SDS011;55045;49.410;11.030;2023-05-10T16:23:39;3.65;;;1.63;;
68225;SDS011;55045;49.410;11.030;2023-05-10T16:26:42;2.17;;;2.00;;
68225;SDS011;55045;49.410;11.030;2023-05-10T16:29:46;2.95;;;1.80;;
68225;SDS011;55045;49.410;11.030;2023-05-10T16:32:49;22.83;;;2.72;;
68225;SDS011;55045;49.410;11.030;2023-05-10T16:35:54;4.55;;;1.95;;
68225;SDS011;55045;49.410;11.030;2023-05-10T16:38:57;1.83;;;1.60;;
68225;SDS011;55045;49.410;11.030;2023-05-10T16:42:00;1.77;;;1.67;;
68225;SDS011;55045;49.410;11.030;2023-05-10T16:45:04;2.97;;;1.50;;
68225;SDS011;55045;49.410;11.030;2023-05-10T16:48:09;1.70;;;1.50;;
68225;SDS011;55045;49.410;11.030;2023-05-10T16:51:14;1.40;;;1.30;;
68225;SDS011;55045;49.410;11.030;2023-05-10T16:54:17;1.88;;;1.42;;
68225;SDS011;55045;49.410;11.030;2023-05-10T16:57:21;2.60;;;1.92;;
68225;SDS011;55045;49.410;11.030;2023-05-10T17:00:24;3.60;;;1.45;;
68225;SDS011;55045;49.410;11.030;2023-05-10T17:03:28;1.88;;;1.55;;
68225;SDS011;55045;49.410;11.030;2023-05-10T17:06:34;4.05;;;1.77;;
68225;SDS011;55045;49.410;11.030;2023-05-10T17:09:38;5.80;;;2.10;;
68225;SDS011;55045;49.410;11.030;2023-05-10T17:12:42;1.52;;;1.42;;
68225;SDS011;55045;49.410;11.030;2023-05-10T17:15:45;6.78;;;2.05;;
68225;SDS011;55045;49.410;11.030;2023-05-10T17:18:49;3.72;;;1.52;;
68225;SDS011;55045;49.410;11.030;2023-05-10T17:21:54;1.83;;;1.52;;
68225;SDS011;55045;49.410;11.030;2023-05-10T17:24:57;1.70;;;1.38;;
68225;SDS011;55045;49.410;11.030;2023-05-10T17:28:00;2.28;;;1.67;;
68225;SDS011;55045;49.410;11.030;2023-05-10T17:31:04;2.78;;;1.60;;
68225;SDS011;55045;49.410;11.030;2023-05-10T17:34:07;2.45;;;1.60;;
68225;SDS011;55045;49.410;11.030;2023-05-10T17:37:12;1.85;;;1.60;;
68225;SDS011;55045;49.410;11.030;2023-05-10T17:40:15;2.00;;;1.85;;
68225;SDS011;55045;49.410;11.030;2023-05-10T17:43:18;1.88;;;1.60;;
68225;SDS011;55045;49.410;11.030;2023-05-10T17:46:22;2.95;;;1.80;;
68225;SDS011;55045;49.410;11.030;2023-05-10T17:49:25;4.75;;;1.75;;
68225;SDS011;55045;49.410;11.030;2023-05-10T17:52:30;2.33;;;1.65;;
68225;SDS011;55045;49.410;11.030;2023-05-10T17:55:34;4.28;;;1.73;;
68225;SDS011;55045;49.410;11.030;2023-05-10T17:58:37;3.42;;;1.90;;
68225;SDS011;55045;49.410;11.030;2023-05-10T18:01:41;4.55;;;2.00;;
68225;SDS011;55045;49.410;11.030;2023-05-10T18:04:44;3.85;;;1.83;;
68225;SDS011;55045;49.410;11.030;2023-05-10T18:07:50;5.40;;;2.05;;
68225;SDS011;55045;49.410;11.030;2023-05-10T18:10:54;2.67;;;2.00;;
68225;SDS011;55045;49.410;11.030;2023-05-10T18:13:57;4.70;;;1.90;;
68225;SDS011;55045;49.410;11.030;2023-05-10T18:17:00;2.92;;;2.50;;
68225;SDS011;55045;49.410;11.030;2023-05-10T18:20:15;2.35;;;2.15;;
68225;SDS011;55045;49.410;11.030;2023-05-10T18:23:20;3.58;;;2.40;;
68225;SDS011;55045;49.410;11.030;2023-05-10T18:26:23;5.30;;;3.10;;
68225;SDS011;55045;49.410;11.030;2023-05-10T18:29:26;4.05;;;2.70;;
68225;SDS011;55045;49.410;11.030;2023-05-10T18:32:29;3.33;;;2.50;;